createdAt,value
2019-05-23T00:00:52.661Z,13.10
2019-05-23T00:03:21.666Z,13.10
2019-05-23T00:05:50.553Z,13.10
2019-05-23T00:08:19.955Z,13.10
2019-05-23T00:13:43.122Z,13.10
2019-05-23T00:16:11.100Z,13.10
2019-05-23T00:18:38.956Z,13.10
2019-05-23T00:21:07.840Z,13.10
2019-05-23T00:23:37.666Z,13.00
2019-05-23T00:26:06.246Z,13.00
2019-05-23T00:28:34.746Z,13.00
2019-05-23T00:31:04.261Z,13.00
2019-05-23T00:33:32.509Z,13.00
2019-05-23T00:36:00.055Z,13.00
2019-05-23T00:38:27.370Z,12.90
2019-05-23T00:40:55.075Z,12.90
2019-05-23T00:43:24.081Z,12.90
2019-05-23T00:45:51.889Z,12.90
2019-05-23T00:48:19.589Z,12.90
2019-05-23T00:50:49.792Z,12.90
2019-05-23T00:53:16.960Z,12.90
2019-05-23T00:55:45.447Z,12.80
2019-05-23T00:58:14.740Z,12.80
2019-05-23T01:00:42.921Z,12.80
2019-05-23T01:03:10.981Z,12.80
2019-05-23T01:05:39.184Z,12.80
2019-05-23T01:08:06.832Z,12.80
2019-05-23T01:10:34.576Z,12.80
2019-05-23T01:13:03.925Z,12.70
2019-05-23T01:15:32.569Z,12.70
2019-05-23T01:20:34.943Z,12.70
2019-05-23T01:23:05.077Z,12.70
2019-05-23T01:25:33.475Z,12.70
2019-05-23T01:28:01.736Z,12.70
2019-05-23T01:30:30.616Z,12.70
2019-05-23T01:33:01.623Z,12.60
2019-05-23T01:35:30.812Z,12.60
2019-05-23T01:37:59.251Z,12.60
2019-05-23T01:40:27.160Z,12.60
2019-05-23T01:42:55.111Z,12.60
2019-05-23T01:45:23.351Z,12.60
2019-05-23T01:47:50.892Z,12.60
2019-05-23T01:50:23.226Z,12.60
2019-05-23T01:52:52.567Z,12.50
2019-05-23T01:55:20.793Z,12.50
2019-05-23T01:57:48.820Z,12.60
2019-05-23T02:00:17.345Z,12.50
2019-05-23T02:02:45.803Z,12.50
2019-05-23T02:05:13.540Z,12.60
2019-05-23T02:07:41.248Z,12.60
2019-05-23T02:10:11.702Z,12.50
2019-05-23T02:12:40.300Z,12.50
2019-05-23T02:15:09.277Z,12.60
2019-05-23T02:17:40.261Z,12.60
2019-05-23T02:20:12.185Z,12.60
2019-05-23T02:22:40.790Z,12.60
2019-05-23T02:25:11.868Z,12.60
2019-05-23T02:27:41.416Z,12.60
2019-05-23T02:30:32.134Z,12.60
2019-05-23T02:32:41.448Z,12.60
2019-05-23T02:35:10.024Z,12.60
2019-05-23T02:37:40.577Z,12.60
2019-05-23T02:40:19.692Z,12.60
2019-05-23T02:42:48.984Z,12.50
2019-05-23T02:45:22.657Z,12.50
2019-05-23T02:47:49.741Z,12.50
2019-05-23T02:50:28.015Z,12.50
2019-05-23T02:52:57.357Z,12.50
2019-05-23T02:55:38.530Z,12.40
2019-05-23T02:58:23.488Z,12.40
2019-05-23T03:01:27.709Z,12.40
2019-05-23T03:03:56.687Z,12.30
2019-05-23T03:06:24.545Z,12.30
2019-05-23T03:08:54.067Z,12.30
2019-05-23T03:11:35.171Z,12.20
2019-05-23T03:14:04.722Z,12.20
2019-05-23T03:19:32.342Z,12.20
2019-05-23T03:22:27.655Z,12.20
2019-05-23T03:24:59.121Z,12.20
2019-05-23T03:29:54.693Z,12.10
2019-05-23T03:32:39.334Z,12.10
2019-05-23T03:35:23.675Z,12.10
2019-05-23T03:37:51.282Z,12.00
2019-05-23T03:40:19.229Z,12.00
2019-05-23T03:42:47.185Z,11.90
2019-05-23T03:45:14.662Z,11.90
2019-05-23T03:47:45.315Z,12.00
2019-05-23T03:50:13.898Z,12.00
2019-05-23T03:52:41.126Z,11.90
2019-05-23T03:55:11.005Z,11.90
2019-05-23T03:57:38.818Z,11.90
2019-05-23T04:00:11.081Z,11.90
2019-05-23T04:02:39.363Z,11.80
2019-05-23T04:05:08.620Z,11.90
2019-05-23T04:07:36.639Z,11.90
2019-05-23T04:12:38.791Z,11.90
2019-05-23T04:15:07.711Z,11.90
2019-05-23T04:17:34.776Z,11.90
2019-05-23T04:20:03.071Z,12.00
2019-05-23T04:22:30.924Z,12.00
2019-05-23T04:25:01.836Z,12.10
2019-05-23T04:27:28.171Z,12.10
2019-05-23T04:29:55.614Z,12.20
2019-05-23T04:32:23.477Z,12.20
2019-05-23T04:34:50.521Z,12.30
2019-05-23T04:37:18.186Z,12.30
2019-05-23T04:39:45.547Z,12.30
2019-05-23T04:42:12.884Z,12.30
2019-05-23T04:44:44.107Z,12.30
2019-05-23T04:47:09.780Z,12.30
2019-05-23T04:49:37.189Z,12.30
2019-05-23T04:52:05.598Z,12.40
2019-05-23T04:54:33.446Z,12.40
2019-05-23T04:57:01.511Z,12.50
2019-05-23T04:59:30.491Z,12.50
2019-05-23T05:01:58.434Z,12.40
2019-05-23T05:04:26.137Z,12.40
2019-05-23T05:06:53.803Z,12.50
2019-05-23T05:09:25.395Z,12.30
2019-05-23T05:11:52.605Z,12.30
2019-05-23T05:14:20.057Z,12.20
2019-05-23T05:16:47.511Z,12.20
2019-05-23T05:19:15.460Z,12.10
2019-05-23T05:21:42.525Z,12.10
2019-05-23T05:24:09.987Z,12.00
2019-05-23T05:26:37.115Z,12.00
2019-05-23T05:29:05.601Z,12.00
2019-05-23T05:31:32.659Z,12.00
2019-05-23T05:33:59.801Z,12.00
2019-05-23T05:36:26.849Z,11.90
2019-05-23T05:38:54.323Z,11.90
2019-05-23T05:41:21.983Z,11.90
2019-05-23T05:43:49.670Z,11.80
2019-05-23T05:46:16.772Z,11.90
2019-05-23T05:48:44.951Z,11.90
2019-05-23T05:51:12.521Z,11.90
2019-05-23T05:53:39.556Z,11.90
2019-05-23T05:56:08.372Z,11.90
2019-05-23T05:58:35.652Z,12.10
2019-05-23T06:01:05.002Z,12.10
2019-05-23T06:03:33.601Z,12.20
2019-05-23T06:06:02.530Z,12.30
2019-05-23T06:08:31.402Z,12.30
2019-05-23T06:10:58.476Z,12.30
2019-05-23T06:13:26.991Z,12.30
2019-05-23T06:15:54.340Z,12.30
2019-05-23T06:18:21.587Z,12.40
2019-05-23T06:20:49.451Z,12.40
2019-05-23T06:23:17.110Z,12.40
2019-05-23T06:25:45.355Z,12.40
2019-05-23T06:28:35.185Z,12.50
2019-05-23T06:31:03.157Z,12.40
2019-05-23T06:33:31.512Z,12.50
2019-05-23T06:35:59.487Z,12.50
2019-05-23T06:38:27.871Z,12.60
2019-05-23T06:40:55.416Z,12.70
2019-05-23T06:43:23.331Z,12.70
2019-05-23T06:45:51.145Z,12.90
2019-05-23T06:48:20.562Z,13.00
2019-05-23T06:50:48.376Z,13.00
2019-05-23T06:53:16.298Z,13.10
2019-05-23T06:55:43.471Z,13.10
2019-05-23T06:58:11.383Z,13.20
2019-05-23T07:00:39.564Z,13.30
2019-05-23T07:03:08.769Z,13.30
2019-05-23T07:05:36.324Z,13.30
2019-05-23T07:08:04.647Z,13.30
2019-05-23T07:10:32.047Z,13.30
2019-05-23T07:12:59.406Z,13.30
2019-05-23T07:15:27.428Z,13.40
2019-05-23T07:17:56.846Z,13.50
2019-05-23T07:20:24.131Z,13.60
2019-05-23T07:22:51.187Z,13.80
2019-05-23T07:25:18.320Z,13.90
2019-05-23T07:27:46.406Z,13.90
2019-05-23T07:30:21.806Z,13.90
2019-05-23T07:32:49.210Z,14.00
2019-05-23T07:35:16.336Z,14.20
2019-05-23T07:37:43.480Z,14.30
2019-05-23T07:40:11.322Z,14.40
2019-05-23T07:42:38.716Z,14.50
2019-05-23T07:45:09.447Z,14.70
2019-05-23T07:47:40.041Z,14.80
2019-05-23T07:50:07.793Z,15.00
2019-05-23T07:52:35.046Z,14.90
2019-05-23T07:55:04.971Z,15.10
2019-05-23T07:57:32.502Z,15.10
2019-05-23T08:00:01.275Z,15.00
2019-05-23T08:02:34.337Z,15.10
2019-05-23T08:05:02.086Z,15.00
2019-05-23T08:07:32.656Z,15.10
2019-05-23T08:09:58.951Z,15.20
2019-05-23T08:12:26.405Z,15.30
2019-05-23T08:14:54.701Z,15.40
2019-05-23T08:17:22.028Z,15.30
2019-05-23T08:22:19.098Z,15.60
2019-05-23T08:24:50.697Z,15.70
2019-05-23T08:27:16.055Z,15.90
2019-05-23T08:29:43.093Z,15.90
2019-05-23T08:32:10.986Z,15.90
2019-05-23T08:34:42.178Z,15.90
2019-05-23T08:37:10.454Z,15.90
2019-05-23T08:39:37.941Z,15.90
2019-05-23T08:42:05.506Z,15.90
2019-05-23T08:44:32.631Z,15.70
2019-05-23T08:47:00.618Z,15.70
2019-05-23T08:49:27.885Z,15.80
2019-05-23T08:54:22.275Z,15.80
2019-05-23T08:56:49.520Z,15.90
2019-05-23T09:01:47.604Z,15.80
2019-05-23T09:04:16.392Z,15.90
2019-05-23T09:09:28.300Z,16.10
2019-05-23T09:11:41.756Z,16.20
2019-05-23T09:14:09.361Z,16.20
2019-05-23T09:16:37.255Z,16.20
2019-05-23T09:19:04.461Z,16.20
2019-05-23T09:21:32.611Z,16.30
2019-05-23T09:24:00.245Z,16.60
2019-05-23T09:26:27.381Z,16.50
2019-05-23T09:28:54.641Z,16.40
2019-05-23T09:31:22.325Z,16.40
2019-05-23T09:33:49.456Z,16.20
2019-05-23T09:36:16.729Z,16.10
2019-05-23T09:38:43.780Z,16.10
2019-05-23T09:41:10.852Z,16.20
2019-05-23T09:43:37.930Z,16.30
2019-05-23T09:46:05.552Z,16.40
2019-05-23T09:48:33.187Z,16.60
2019-05-23T09:51:00.246Z,16.60
2019-05-23T09:53:28.640Z,16.70
2019-05-23T09:55:56.117Z,16.60
2019-05-23T09:58:23.659Z,16.70
2019-05-23T10:00:51.770Z,16.90
2019-05-23T10:03:19.231Z,17.00
2019-05-23T10:05:46.376Z,17.10
2019-05-23T10:08:13.530Z,17.00
2019-05-23T10:10:40.983Z,17.10
2019-05-23T10:13:08.517Z,17.20
2019-05-23T10:15:37.743Z,17.30
2019-05-23T10:18:05.254Z,17.40
2019-05-23T10:20:35.347Z,17.60
2019-05-23T10:25:31.453Z,17.40
2019-05-23T10:27:58.838Z,17.50
2019-05-23T10:30:27.759Z,17.70
2019-05-23T10:32:55.159Z,17.70
2019-05-23T10:35:22.814Z,17.70
2019-05-23T10:37:49.983Z,17.90
2019-05-23T10:40:17.933Z,18.10
2019-05-23T10:42:45.073Z,18.20
2019-05-23T10:45:14.479Z,18.20
2019-05-23T10:47:41.615Z,18.30
2019-05-23T10:50:10.054Z,18.30
2019-05-23T10:52:37.674Z,18.80
2019-05-23T10:55:05.992Z,18.90
2019-05-23T10:57:33.104Z,19.00
2019-05-23T11:00:00.343Z,18.70
2019-05-23T11:02:28.148Z,18.50
2019-05-23T11:04:56.575Z,18.40
2019-05-23T11:07:24.821Z,18.40
2019-05-23T11:09:52.559Z,18.30
2019-05-23T11:12:19.755Z,18.30
2019-05-23T11:14:46.954Z,18.20
2019-05-23T11:17:14.028Z,18.60
2019-05-23T11:19:41.600Z,18.70
2019-05-23T11:22:09.264Z,19.00
2019-05-23T11:24:36.431Z,19.30
2019-05-23T11:27:03.636Z,19.50
2019-05-23T11:29:31.114Z,19.60
2019-05-23T11:31:58.474Z,20.00
2019-05-23T11:34:26.477Z,20.10
2019-05-23T11:36:53.648Z,20.30
2019-05-23T11:39:23.009Z,20.50
2019-05-23T11:41:50.125Z,20.40
2019-05-23T11:44:17.235Z,20.00
2019-05-23T11:46:45.220Z,20.00
2019-05-23T11:49:12.843Z,20.50
2019-05-23T11:51:39.882Z,20.60
2019-05-23T11:54:09.591Z,21.00
2019-05-23T11:56:38.052Z,20.70
2019-05-23T11:59:05.744Z,20.10
2019-05-23T12:01:34.823Z,19.70
2019-05-23T12:04:09.894Z,19.60
2019-05-23T12:06:54.424Z,19.30
2019-05-23T12:09:08.409Z,19.10
2019-05-23T12:11:39.501Z,19.10
2019-05-23T12:14:06.056Z,19.20
2019-05-23T12:16:33.469Z,19.10
2019-05-23T12:19:00.644Z,19.20
2019-05-23T12:21:28.328Z,19.40
2019-05-23T12:23:55.345Z,19.50
2019-05-23T12:26:22.594Z,19.30
2019-05-23T12:28:49.639Z,19.10
2019-05-23T12:31:17.589Z,19.10
2019-05-23T12:33:44.873Z,19.00
2019-05-23T12:36:12.866Z,19.10
2019-05-23T12:38:39.983Z,19.00
2019-05-23T12:41:08.873Z,18.90
2019-05-23T12:43:35.926Z,18.90
2019-05-23T12:46:03.309Z,19.10
2019-05-23T12:48:33.315Z,19.40
2019-05-23T12:51:11.461Z,19.60
2019-05-23T12:56:05.697Z,19.60
2019-05-23T12:58:33.570Z,19.70
2019-05-23T13:01:04.341Z,19.50
2019-05-23T13:03:32.803Z,19.40
2019-05-23T13:06:00.231Z,19.30
2019-05-23T13:08:27.585Z,19.00
2019-05-23T13:10:55.030Z,18.90
2019-05-23T13:13:22.555Z,18.70
2019-05-23T13:15:49.616Z,18.70
2019-05-23T13:18:16.942Z,18.70
2019-05-23T13:20:44.555Z,18.60
2019-05-23T13:23:20.465Z,18.60
2019-05-23T13:25:40.776Z,18.40
2019-05-23T13:28:07.785Z,18.40
2019-05-23T13:30:34.838Z,18.40
2019-05-23T13:33:03.762Z,18.30
2019-05-23T13:35:31.274Z,18.40
2019-05-23T13:37:58.787Z,18.40
2019-05-23T13:40:26.235Z,18.40
2019-05-23T13:42:53.333Z,18.50
2019-05-23T13:47:48.513Z,18.80
2019-05-23T13:50:15.765Z,18.70
2019-05-23T13:52:42.925Z,18.70
2019-05-23T13:55:10.428Z,18.60
2019-05-23T13:57:38.668Z,18.80
2019-05-23T14:00:06.999Z,18.80
2019-05-23T14:02:34.000Z,18.70
2019-05-23T14:05:01.103Z,18.80
2019-05-23T14:07:28.452Z,18.70
2019-05-23T14:09:56.088Z,18.80
2019-05-23T14:12:24.699Z,18.90
2019-05-23T14:14:51.961Z,19.10
2019-05-23T14:17:23.410Z,19.30
2019-05-23T14:19:50.760Z,19.30
2019-05-23T14:22:18.034Z,19.50
2019-05-23T14:24:45.464Z,19.50
2019-05-23T14:27:17.335Z,19.40
2019-05-23T14:29:44.670Z,19.40
2019-05-23T14:32:14.909Z,19.40
2019-05-23T14:34:42.044Z,19.30
2019-05-23T14:37:13.695Z,19.30
2019-05-23T14:39:42.597Z,19.10
2019-05-23T14:42:14.751Z,18.90
2019-05-23T14:44:43.478Z,18.90
2019-05-23T14:47:15.299Z,18.90
2019-05-23T14:50:00.577Z,18.60
2019-05-23T14:55:02.492Z,18.60
2019-05-23T14:57:29.920Z,18.50
2019-05-23T14:59:56.950Z,18.50
2019-05-23T15:02:24.669Z,18.40
2019-05-23T15:04:51.758Z,18.50
2019-05-23T15:07:18.986Z,18.50
2019-05-23T15:09:46.021Z,18.50
2019-05-23T15:12:13.310Z,18.40
2019-05-23T15:14:40.454Z,18.50
2019-05-23T15:17:07.825Z,18.70
2019-05-23T15:19:42.061Z,18.70
2019-05-23T15:24:32.635Z,18.90
2019-05-23T15:27:01.021Z,19.00
2019-05-23T15:29:29.404Z,19.20
2019-05-23T15:32:02.175Z,19.20
2019-05-23T15:34:25.743Z,19.20
2019-05-23T15:36:52.752Z,19.30
2019-05-23T15:39:20.681Z,19.20
2019-05-23T15:44:25.612Z,19.20
2019-05-23T15:46:46.693Z,19.20
2019-05-23T15:49:14.844Z,19.10
2019-05-23T15:52:01.043Z,19.10
2019-05-23T15:54:30.235Z,19.00
2019-05-23T15:57:01.820Z,19.10
2019-05-23T15:59:30.627Z,19.20
2019-05-23T16:02:11.384Z,19.30
2019-05-23T16:04:39.247Z,19.40
2019-05-23T16:07:08.488Z,19.50
2019-05-23T16:09:35.511Z,19.60
2019-05-23T16:12:02.726Z,19.40
2019-05-23T16:14:29.735Z,19.40
2019-05-23T16:16:59.166Z,19.20
2019-05-23T16:19:26.312Z,19.10
2019-05-23T16:21:53.582Z,19.10
2019-05-23T16:24:20.747Z,18.90
2019-05-23T16:26:47.981Z,18.80
2019-05-23T16:29:16.572Z,18.80
2019-05-23T16:31:44.428Z,18.90
2019-05-23T16:34:11.435Z,18.90
2019-05-23T16:36:38.625Z,18.80
2019-05-23T16:39:07.375Z,18.70
2019-05-23T16:41:34.420Z,18.70
2019-05-23T16:44:01.827Z,18.80
2019-05-23T16:46:29.005Z,18.70
2019-05-23T16:48:56.001Z,18.80
2019-05-23T16:51:23.257Z,18.90
2019-05-23T16:53:51.010Z,18.90
2019-05-23T16:56:20.097Z,19.10
2019-05-23T16:58:54.747Z,19.20
2019-05-23T17:01:29.820Z,19.60
2019-05-23T17:03:58.677Z,19.90
2019-05-23T17:06:30.302Z,20.40
2019-05-23T17:08:59.212Z,20.70
2019-05-23T17:11:43.012Z,21.20
2019-05-23T17:14:28.711Z,22.00
2019-05-23T17:17:05.131Z,22.60
2019-05-23T17:19:33.641Z,22.70
2019-05-23T17:22:03.069Z,22.60
2019-05-23T17:24:32.068Z,21.90
2019-05-23T17:27:03.547Z,21.40
2019-05-23T17:32:06.889Z,20.60
2019-05-23T17:34:34.113Z,20.10
2019-05-23T17:37:01.538Z,19.60
2019-05-23T17:39:28.953Z,19.30
2019-05-23T17:41:56.154Z,19.20
2019-05-23T17:44:23.373Z,19.00
2019-05-23T17:46:50.425Z,18.90
2019-05-23T17:49:17.547Z,18.90
2019-05-23T17:51:44.669Z,19.00
2019-05-23T17:54:12.172Z,19.00
2019-05-23T17:56:39.458Z,18.90
2019-05-23T17:59:06.482Z,18.80
2019-05-23T18:01:33.636Z,18.80
2019-05-23T18:04:00.715Z,18.90
2019-05-23T18:06:28.142Z,19.30
2019-05-23T18:08:55.368Z,19.70
2019-05-23T18:11:22.446Z,19.90
2019-05-23T18:13:50.977Z,20.00
2019-05-23T18:16:19.674Z,20.00
2019-05-23T18:18:46.748Z,19.80
2019-05-23T18:21:14.002Z,19.40
2019-05-23T18:23:41.460Z,19.20
2019-05-23T18:26:08.608Z,18.90
2019-05-23T18:28:36.062Z,18.70
2019-05-23T18:31:11.024Z,18.40
2019-05-23T18:33:38.843Z,18.10
2019-05-23T18:36:06.848Z,17.80
2019-05-23T18:38:35.627Z,17.60
2019-05-23T18:41:08.721Z,17.40
2019-05-23T18:43:32.530Z,17.20
2019-05-23T18:46:01.558Z,16.90
2019-05-23T18:48:29.276Z,16.70
2019-05-23T18:50:56.586Z,16.50
2019-05-23T18:53:23.935Z,16.40
2019-05-23T18:55:51.188Z,16.10
2019-05-23T18:58:20.123Z,15.90
2019-05-23T19:00:57.880Z,15.80
2019-05-23T19:03:25.433Z,15.70
2019-05-23T19:05:52.466Z,15.60
2019-05-23T19:08:20.083Z,15.50
2019-05-23T19:10:47.186Z,15.40
2019-05-23T19:13:14.603Z,15.30
2019-05-23T19:15:41.918Z,15.20
2019-05-23T19:18:09.183Z,15.10
2019-05-23T19:20:36.593Z,15.00
2019-05-23T19:23:04.270Z,15.00
2019-05-23T19:25:32.834Z,14.90
2019-05-23T19:28:00.019Z,14.80
2019-05-23T19:30:27.457Z,14.80
2019-05-23T19:32:54.573Z,14.70
2019-05-23T19:35:21.878Z,14.60
2019-05-23T19:37:49.313Z,14.60
2019-05-23T19:40:17.329Z,14.60
2019-05-23T19:45:12.907Z,14.50
2019-05-23T19:47:40.441Z,14.50
2019-05-23T19:50:08.523Z,14.40
2019-05-23T19:52:36.308Z,14.30
2019-05-23T19:55:06.256Z,14.30
2019-05-23T19:57:34.198Z,14.20
2019-05-23T20:00:01.651Z,14.10
2019-05-23T20:02:34.140Z,14.00
2019-05-23T20:05:03.431Z,13.80
2019-05-23T20:07:31.080Z,13.70
2019-05-23T20:09:58.651Z,13.60
2019-05-23T20:12:26.391Z,13.50
2019-05-23T20:14:53.666Z,13.50
2019-05-23T20:17:21.914Z,13.40
2019-05-23T20:19:50.507Z,13.40
2019-05-23T20:22:18.030Z,13.30
2019-05-23T20:24:45.213Z,13.20
2019-05-23T20:27:12.790Z,13.10
2019-05-23T20:29:39.874Z,13.10
2019-05-23T20:32:08.745Z,13.00
2019-05-23T20:34:37.480Z,12.90
2019-05-23T20:37:05.484Z,12.80
2019-05-23T20:39:32.916Z,12.70
2019-05-23T20:44:30.694Z,12.50
2019-05-23T20:46:57.959Z,12.40
2019-05-23T20:49:27.225Z,12.30
2019-05-23T20:51:54.170Z,12.20
2019-05-23T20:54:22.045Z,12.10
2019-05-23T20:56:49.195Z,12.00
2019-05-23T20:59:16.344Z,12.00
2019-05-23T21:01:44.302Z,11.90
2019-05-23T21:04:11.670Z,11.80
2019-05-23T21:06:39.012Z,11.80
2019-05-23T21:09:07.591Z,11.80
2019-05-23T21:11:34.844Z,11.70
2019-05-23T21:14:02.013Z,11.60
2019-05-23T21:16:29.156Z,11.50
2019-05-23T21:18:56.311Z,11.50
2019-05-23T21:21:23.756Z,11.50
2019-05-23T21:23:56.408Z,11.50
2019-05-23T21:26:20.012Z,11.50
2019-05-23T21:28:47.072Z,11.50
2019-05-23T21:31:16.140Z,11.40
2019-05-23T21:33:43.620Z,11.40
2019-05-23T21:36:10.755Z,11.30
2019-05-23T21:38:37.900Z,11.30
2019-05-23T21:41:05.370Z,11.20
2019-05-23T21:43:32.918Z,11.20
2019-05-23T21:46:00.011Z,11.20
2019-05-23T21:48:27.620Z,11.20
2019-05-23T21:50:55.170Z,11.20
2019-05-23T21:53:22.335Z,11.20
2019-05-23T21:55:49.459Z,11.10
2019-05-23T21:58:21.244Z,11.00
2019-05-23T22:01:07.659Z,11.00
2019-05-23T22:03:53.652Z,10.90
2019-05-23T22:06:30.912Z,10.90
2019-05-23T22:08:58.148Z,10.90
2019-05-23T22:11:25.770Z,10.90
2019-05-23T22:13:52.948Z,10.80
2019-05-23T22:16:20.209Z,10.80
2019-05-23T22:18:47.251Z,10.70
2019-05-23T22:21:14.601Z,10.60
2019-05-23T22:23:41.644Z,10.50
2019-05-23T22:26:08.819Z,10.50
2019-05-23T22:28:36.219Z,10.50
2019-05-23T22:31:03.968Z,10.50
2019-05-23T22:33:33.399Z,10.40
2019-05-23T22:36:00.489Z,10.40
2019-05-23T22:38:28.029Z,10.40
2019-05-23T22:40:55.287Z,10.40
2019-05-23T22:43:22.845Z,10.40
2019-05-23T22:45:50.221Z,10.40
2019-05-23T22:48:17.324Z,10.40
2019-05-23T22:50:44.364Z,10.40
2019-05-23T22:53:11.414Z,10.30
2019-05-23T22:55:38.429Z,10.20
2019-05-23T22:58:05.515Z,10.10
2019-05-23T23:00:34.613Z,10.00
2019-05-23T23:03:01.661Z,9.80
2019-05-23T23:05:28.853Z,9.80
2019-05-23T23:07:56.063Z,9.70
2019-05-23T23:10:23.418Z,9.60
2019-05-23T23:12:50.669Z,9.60
2019-05-23T23:15:17.923Z,9.50
2019-05-23T23:17:44.986Z,9.50
2019-05-23T23:20:14.468Z,9.40
2019-05-23T23:22:41.619Z,9.40
2019-05-23T23:25:08.820Z,9.40
2019-05-23T23:27:36.010Z,9.30
2019-05-23T23:30:05.864Z,9.30
2019-05-23T23:32:32.974Z,9.30
2019-05-23T23:35:00.246Z,9.30
2019-05-23T23:37:27.589Z,9.30
2019-05-23T23:39:54.702Z,9.30
2019-05-23T23:42:23.209Z,9.20
2019-05-23T23:44:50.163Z,9.20
2019-05-23T23:47:35.641Z,9.10
2019-05-23T23:50:23.973Z,9.10
2019-05-23T23:53:09.459Z,9.00
2019-05-23T23:55:55.144Z,9.00
2019-05-23T23:58:22.392Z,8.90
